Saint Louis, Texas
Current Conditions -  °F | °C
As of 10:53 AM on Saturday 20 Dec 2014 (Local Time) from KTYR Reporting Station
Overcast Overcast  
Wind Chill: 50°   Ceiling: 700
Heat Index: 50°   Visibility: 10mi
Dew Point: 44°   Wind: 5mph
Humidity: 80%   Direction: 20°NNE
Pressure: 30.25"   Gusts: NA
Location:  32.3248°N, 95.3025°W
Report Text: KTYR 201653Z AUTO 02004KT 10SM OVC007 10/07 A3025 RMK AO2 SLP241 T01000067
Loading
Personal Weather Stations






























Interactive Weather Map New forecast layout! Learn more

10-Day Weather Forecast

Advertisements
Track Severe Weather on mobile